sensor_id;sensor_type;location;lat;lon;timestamp;pressure;altitude;pressure_sealevel;temperature;humidity
18022;BME280;9136;48.822;7.966;2023-06-10T00:00:31;99733.75;;;19.05;91.97
18022;BME280;9136;48.822;7.966;2023-06-10T00:03:20;99753.28;;;19.17;86.77
18022;BME280;9136;48.822;7.966;2023-06-10T00:06:09;99770.63;;;19.23;86.94
18022;BME280;9136;48.822;7.966;2023-06-10T00:08:57;99750.84;;;19.14;85.29
18022;BME280;9136;48.822;7.966;2023-06-10T00:11:45;99754.25;;;19.16;89.94
18022;BME280;9136;48.822;7.966;2023-06-10T00:14:36;99748.66;;;19.08;86.60
18022;BME280;9136;48.822;7.966;2023-06-10T00:17:24;99756.03;;;19.04;86.98
18022;BME280;9136;48.822;7.966;2023-06-10T00:20:15;99749.22;;;19.00;86.97
18022;BME280;9136;48.822;7.966;2023-06-10T00:23:02;99729.81;;;18.87;87.18
18022;BME280;9136;48.822;7.966;2023-06-10T00:25:52;99749.91;;;18.91;87.46
18022;BME280;9136;48.822;7.966;2023-06-10T00:28:40;99753.31;;;18.93;91.66
18022;BME280;9136;48.822;7.966;2023-06-10T00:31:29;99756.78;;;18.82;89.72
18022;BME280;9136;48.822;7.966;2023-06-10T00:34:17;99740.53;;;18.74;90.00
18022;BME280;9136;48.822;7.966;2023-06-10T00:37:05;99748.53;;;18.74;90.30
18022;BME280;9136;48.822;7.966;2023-06-10T00:39:55;99728.97;;;18.63;93.54
18022;BME280;9136;48.822;7.966;2023-06-10T00:42:43;99743.19;;;18.62;92.60
18022;BME280;9136;48.822;7.966;2023-06-10T00:45:31;99743.13;;;18.63;92.73
18022;BME280;9136;48.822;7.966;2023-06-10T00:48:20;99732.72;;;18.47;93.53
18022;BME280;9136;48.822;7.966;2023-06-10T00:51:08;99728.63;;;18.43;93.87
18022;BME280;9136;48.822;7.966;2023-06-10T00:53:56;99728.94;;;18.39;94.45
18022;BME280;9136;48.822;7.966;2023-06-10T00:56:44;99730.88;;;18.37;95.80
18022;BME280;9136;48.822;7.966;2023-06-10T00:59:33;99732.25;;;18.29;95.88
18022;BME280;9136;48.822;7.966;2023-06-10T01:02:24;99739.06;;;18.34;96.79
18022;BME280;9136;48.822;7.966;2023-06-10T01:05:14;99722.81;;;18.25;96.83
18022;BME280;9136;48.822;7.966;2023-06-10T01:08:07;99742.91;;;18.29;97.04
18022;BME280;9136;48.822;7.966;2023-06-10T01:11:00;99756.91;;;18.31;97.78
18022;BME280;9136;48.822;7.966;2023-06-10T01:13:50;99748.31;;;18.28;98.31
18022;BME280;9136;48.822;7.966;2023-06-10T01:16:38;99740.59;;;18.25;98.56
18022;BME280;9136;48.822;7.966;2023-06-10T01:19:27;99742.09;;;18.16;99.48
18022;BME280;9136;48.822;7.966;2023-06-10T01:22:18;99755.69;;;18.24;99.96
18022;BME280;9136;48.822;7.966;2023-06-10T01:25:07;99727.00;;;18.04;100.00
18022;BME280;9136;48.822;7.966;2023-06-10T01:28:07;99753.16;;;18.10;100.00
18022;BME280;9136;48.822;7.966;2023-06-10T01:31:03;99739.44;;;18.03;100.00
18022;BME280;9136;48.822;7.966;2023-06-10T01:33:55;99747.09;;;18.08;100.00
18022;BME280;9136;48.822;7.966;2023-06-10T01:36:47;99723.63;;;17.89;100.00
18022;BME280;9136;48.822;7.966;2023-06-10T01:39:37;99740.19;;;17.93;100.00
18022;BME280;9136;48.822;7.966;2023-06-10T01:42:27;99741.28;;;17.90;100.00
18022;BME280;9136;48.822;7.966;2023-06-10T01:45:15;99750.72;;;17.94;100.00
18022;BME280;9136;48.822;7.966;2023-06-10T01:48:04;99747.22;;;17.94;100.00
18022;BME280;9136;48.822;7.966;2023-06-10T01:50:51;99744.88;;;17.89;100.00
18022;BME280;9136;48.822;7.966;2023-06-10T01:53:41;99772.94;;;18.06;100.00
18022;BME280;9136;48.822;7.966;2023-06-10T01:56:30;99755.31;;;18.05;100.00
18022;BME280;9136;48.822;7.966;2023-06-10T01:59:18;99746.91;;;17.98;100.00
18022;BME280;9136;48.822;7.966;2023-06-10T02:02:06;99747.88;;;17.97;100.00
18022;BME280;9136;48.822;7.966;2023-06-10T02:04:54;99759.75;;;17.92;100.00
18022;BME280;9136;48.822;7.966;2023-06-10T02:07:41;99744.28;;;17.86;100.00
18022;BME280;9136;48.822;7.966;2023-06-10T02:10:29;99749.25;;;17.90;100.00
18022;BME280;9136;48.822;7.966;2023-06-10T02:13:18;99752.00;;;17.89;100.00
18022;BME280;9136;48.822;7.966;2023-06-10T02:16:06;99761.13;;;17.85;100.00
18022;BME280;9136;48.822;7.966;2023-06-10T02:18:55;99773.91;;;17.80;100.00
18022;BME280;9136;48.822;7.966;2023-06-10T02:21:44;99757.00;;;17.68;100.00
18022;BME280;9136;48.822;7.966;2023-06-10T02:24:31;99764.88;;;17.69;100.00
18022;BME280;9136;48.822;7.966;2023-06-10T02:27:20;99746.34;;;17.55;100.00
18022;BME280;9136;48.822;7.966;2023-06-10T02:30:10;99757.63;;;17.59;100.00
18022;BME280;9136;48.822;7.966;2023-06-10T02:32:59;99760.41;;;17.57;100.00
18022;BME280;9136;48.822;7.966;2023-06-10T02:35:47;99759.97;;;17.51;100.00
18022;BME280;9136;48.822;7.966;2023-06-10T02:38:35;99772.16;;;17.53;100.00
18022;BME280;9136;48.822;7.966;2023-06-10T02:41:22;99769.50;;;17.53;100.00
18022;BME280;9136;48.822;7.966;2023-06-10T02:44:11;99773.47;;;17.48;100.00
18022;BME280;9136;48.822;7.966;2023-06-10T02:47:00;99767.72;;;17.54;100.00
18022;BME280;9136;48.822;7.966;2023-06-10T02:49:48;99781.84;;;17.54;100.00
18022;BME280;9136;48.822;7.966;2023-06-10T02:52:37;99793.97;;;17.58;100.00
18022;BME280;9136;48.822;7.966;2023-06-10T02:55:24;99799.28;;;17.58;100.00
18022;BME280;9136;48.822;7.966;2023-06-10T02:58:12;99786.28;;;17.54;100.00
18022;BME280;9136;48.822;7.966;2023-06-10T03:01:00;99792.16;;;17.59;100.00
18022;BME280;9136;48.822;7.966;2023-06-10T03:03:49;99794.69;;;17.60;100.00
18022;BME280;9136;48.822;7.966;2023-06-10T03:06:37;99787.16;;;17.54;100.00
18022;BME280;9136;48.822;7.966;2023-06-10T03:09:27;99783.97;;;17.49;100.00
18022;BME280;9136;48.822;7.966;2023-06-10T03:12:14;99803.41;;;17.62;100.00
18022;BME280;9136;48.822;7.966;2023-06-10T03:15:02;99804.16;;;17.64;100.00
18022;BME280;9136;48.822;7.966;2023-06-10T03:17:51;99803.81;;;17.56;100.00
18022;BME280;9136;48.822;7.966;2023-06-10T03:20:41;99816.91;;;17.59;100.00
18022;BME280;9136;48.822;7.966;2023-06-10T03:23:30;99787.78;;;17.45;100.00
18022;BME280;9136;48.822;7.966;2023-06-10T03:26:19;99800.53;;;17.53;100.00
18022;BME280;9136;48.822;7.966;2023-06-10T03:29:07;99813.69;;;17.54;100.00
18022;BME280;9136;48.822;7.966;2023-06-10T03:31:56;99795.72;;;17.45;100.00
18022;BME280;9136;48.822;7.966;2023-06-10T03:34:44;99802.97;;;17.43;100.00
18022;BME280;9136;48.822;7.966;2023-06-10T03:37:35;99801.38;;;17.40;100.00
18022;BME280;9136;48.822;7.966;2023-06-10T03:40:23;99813.69;;;17.29;100.00
18022;BME280;9136;48.822;7.966;2023-06-10T03:43:11;99812.38;;;17.22;100.00
18022;BME280;9136;48.822;7.966;2023-06-10T03:45:58;99829.03;;;17.24;100.00
18022;BME280;9136;48.822;7.966;2023-06-10T03:48:46;99813.84;;;17.13;100.00
18022;BME280;9136;48.822;7.966;2023-06-10T03:51:35;99816.03;;;17.06;100.00
18022;BME280;9136;48.822;7.966;2023-06-10T03:54:25;99811.69;;;17.05;100.00
18022;BME280;9136;48.822;7.966;2023-06-10T03:57:12;99809.25;;;17.02;100.00
18022;BME280;9136;48.822;7.966;2023-06-10T04:00:00;99810.81;;;17.05;100.00
18022;BME280;9136;48.822;7.966;2023-06-10T04:02:52;99811.56;;;17.07;100.00
18022;BME280;9136;48.822;7.966;2023-06-10T04:05:41;99821.47;;;17.17;100.00
18022;BME280;9136;48.822;7.966;2023-06-10T04:08:29;99816.03;;;17.06;100.00
18022;BME280;9136;48.822;7.966;2023-06-10T04:11:19;99809.75;;;17.07;100.00
18022;BME280;9136;48.822;7.966;2023-06-10T04:14:07;99835.53;;;17.20;100.00
18022;BME280;9136;48.822;7.966;2023-06-10T04:16:55;99823.84;;;17.22;100.00
18022;BME280;9136;48.822;7.966;2023-06-10T04:19:42;99828.94;;;17.25;100.00
18022;BME280;9136;48.822;7.966;2023-06-10T04:22:30;99810.13;;;17.15;100.00
18022;BME280;9136;48.822;7.966;2023-06-10T04:25:18;99830.44;;;17.29;100.00
18022;BME280;9136;48.822;7.966;2023-06-10T04:28:08;99841.72;;;17.33;100.00
18022;BME280;9136;48.822;7.966;2023-06-10T04:30:55;99845.09;;;17.35;100.00
18022;BME280;9136;48.822;7.966;2023-06-10T04:33:44;99833.84;;;17.31;100.00
18022;BME280;9136;48.822;7.966;2023-06-10T04:36:31;99820.56;;;17.31;100.00
18022;BME280;9136;48.822;7.966;2023-06-10T04:39:19;99832.38;;;17.40;100.00
18022;BME280;9136;48.822;7.966;2023-06-10T04:42:07;99846.63;;;17.52;100.00
18022;BME280;9136;48.822;7.966;2023-06-10T04:44:56;99852.28;;;17.60;100.00
18022;BME280;9136;48.822;7.966;2023-06-10T04:47:45;99844.31;;;17.60;100.00
18022;BME280;9136;48.822;7.966;2023-06-10T04:50:32;99832.53;;;17.64;100.00
18022;BME280;9136;48.822;7.966;2023-06-10T04:53:20;99821.91;;;17.64;100.00
18022;BME280;9136;48.822;7.966;2023-06-10T04:56:08;99842.25;;;17.78;100.00
18022;BME280;9136;48.822;7.966;2023-06-10T04:58:56;99863.50;;;17.90;100.00
18022;BME280;9136;48.822;7.966;2023-06-10T05:01:45;99856.72;;;17.99;100.00
18022;BME280;9136;48.822;7.966;2023-06-10T05:04:32;99841.50;;;17.88;100.00
18022;BME280;9136;48.822;7.966;2023-06-10T05:07:20;99851.19;;;18.02;100.00
18022;BME280;9136;48.822;7.966;2023-06-10T05:10:09;99850.09;;;18.05;100.00
18022;BME280;9136;48.822;7.966;2023-06-10T05:12:58;99828.97;;;18.03;100.00
18022;BME280;9136;48.822;7.966;2023-06-10T05:15:46;99838.84;;;18.14;100.00
18022;BME280;9136;48.822;7.966;2023-06-10T05:18:36;99851.28;;;18.26;100.00
18022;BME280;9136;48.822;7.966;2023-06-10T05:21:23;99867.97;;;18.41;100.00
18022;BME280;9136;48.822;7.966;2023-06-10T05:24:11;99877.75;;;18.53;100.00
18022;BME280;9136;48.822;7.966;2023-06-10T05:26:59;99855.81;;;18.49;100.00
18022;BME280;9136;48.822;7.966;2023-06-10T05:29:47;99865.91;;;18.57;100.00
18022;BME280;9136;48.822;7.966;2023-06-10T05:32:35;99850.69;;;18.59;100.00
18022;BME280;9136;48.822;7.966;2023-06-10T05:35:25;99868.03;;;18.77;100.00
18022;BME280;9136;48.822;7.966;2023-06-10T05:38:13;99853.03;;;18.76;100.00
18022;BME280;9136;48.822;7.966;2023-06-10T05:41:01;99839.09;;;18.73;100.00
18022;BME280;9136;48.822;7.966;2023-06-10T05:43:49;99857.84;;;18.95;100.00
18022;BME280;9136;48.822;7.966;2023-06-10T05:46:38;99833.13;;;18.82;100.00
18022;BME280;9136;48.822;7.966;2023-06-10T05:49:25;99849.63;;;18.98;100.00
18022;BME280;9136;48.822;7.966;2023-06-10T05:52:15;99871.84;;;19.10;100.00
18022;BME280;9136;48.822;7.966;2023-06-10T05:55:03;99865.63;;;19.22;100.00
18022;BME280;9136;48.822;7.966;2023-06-10T05:57:58;99834.38;;;19.13;100.00
18022;BME280;9136;48.822;7.966;2023-06-10T06:00:47;99861.75;;;19.26;100.00
18022;BME280;9136;48.822;7.966;2023-06-10T06:03:35;99869.53;;;19.29;100.00
18022;BME280;9136;48.822;7.966;2023-06-10T06:06:22;99871.16;;;19.43;100.00
18022;BME280;9136;48.822;7.966;2023-06-10T06:09:12;99860.91;;;19.50;100.00
18022;BME280;9136;48.822;7.966;2023-06-10T06:12:00;99886.66;;;19.62;100.00
18022;BME280;9136;48.822;7.966;2023-06-10T06:14:48;99859.94;;;19.51;100.00
18022;BME280;9136;48.822;7.966;2023-06-10T06:17:38;99876.00;;;19.62;100.00
18022;BME280;9136;48.822;7.966;2023-06-10T06:20:26;99874.22;;;19.73;100.00
18022;BME280;9136;48.822;7.966;2023-06-10T06:23:14;99872.41;;;19.74;100.00
18022;BME280;9136;48.822;7.966;2023-06-10T06:26:03;99864.53;;;19.72;100.00
18022;BME280;9136;48.822;7.966;2023-06-10T06:28:51;99874.88;;;19.88;97.02
18022;BME280;9136;48.822;7.966;2023-06-10T06:31:38;99871.00;;;20.04;97.26
18022;BME280;9136;48.822;7.966;2023-06-10T06:34:26;99861.06;;;19.94;99.22
18022;BME280;9136;48.822;7.966;2023-06-10T06:37:14;99879.97;;;20.14;97.31
18022;BME280;9136;48.822;7.966;2023-06-10T06:40:02;99866.78;;;20.12;100.00
18022;BME280;9136;48.822;7.966;2023-06-10T06:42:51;99859.03;;;20.20;98.99
18022;BME280;9136;48.822;7.966;2023-06-10T06:45:39;99859.50;;;20.25;96.70
18022;BME280;9136;48.822;7.966;2023-06-10T06:48:27;99881.34;;;20.42;95.22
18022;BME280;9136;48.822;7.966;2023-06-10T06:51:15;99876.03;;;20.53;90.90
18022;BME280;9136;48.822;7.966;2023-06-10T06:54:03;99853.25;;;20.49;89.47
18022;BME280;9136;48.822;7.966;2023-06-10T06:56:51;99874.19;;;20.65;92.76
18022;BME280;9136;48.822;7.966;2023-06-10T06:59:41;99891.53;;;20.81;90.43
18022;BME280;9136;48.822;7.966;2023-06-10T07:02:29;99878.69;;;20.86;91.09
18022;BME280;9136;48.822;7.966;2023-06-10T07:05:18;99890.06;;;21.00;89.21
18022;BME280;9136;48.822;7.966;2023-06-10T07:08:06;99883.97;;;21.09;90.72
18022;BME280;9136;48.822;7.966;2023-06-10T07:10:54;99898.13;;;21.21;89.18
18022;BME280;9136;48.822;7.966;2023-06-10T07:13:41;99867.31;;;21.17;88.28
18022;BME280;9136;48.822;7.966;2023-06-10T07:16:31;99890.13;;;21.32;84.71
18022;BME280;9136;48.822;7.966;2023-06-10T07:19:18;99898.97;;;21.43;87.91
18022;BME280;9136;48.822;7.966;2023-06-10T07:22:06;99889.06;;;21.55;95.41
18022;BME280;9136;48.822;7.966;2023-06-10T07:24:54;99887.47;;;21.64;83.98
18022;BME280;9136;48.822;7.966;2023-06-10T07:27:43;99899.78;;;21.76;87.17
18022;BME280;9136;48.822;7.966;2023-06-10T07:30:31;99911.97;;;21.90;83.33
18022;BME280;9136;48.822;7.966;2023-06-10T07:33:20;99894.84;;;21.92;88.68
18022;BME280;9136;48.822;7.966;2023-06-10T07:36:09;99911.63;;;22.15;82.59
18022;BME280;9136;48.822;7.966;2023-06-10T07:38:56;99898.66;;;22.11;81.85
18022;BME280;9136;48.822;7.966;2023-06-10T07:41:44;99897.59;;;22.23;79.01
18022;BME280;9136;48.822;7.966;2023-06-10T07:44:32;99900.03;;;22.36;81.44
18022;BME280;9136;48.822;7.966;2023-06-10T07:47:20;99905.84;;;22.41;82.36
18022;BME280;9136;48.822;7.966;2023-06-10T07:50:09;99891.25;;;22.54;77.90
18022;BME280;9136;48.822;7.966;2023-06-10T07:52:57;99886.22;;;22.61;77.92
18022;BME280;9136;48.822;7.966;2023-06-10T07:55:45;99905.53;;;22.65;74.57
18022;BME280;9136;48.822;7.966;2023-06-10T07:58:33;99914.72;;;22.72;76.16
18022;BME280;9136;48.822;7.966;2023-06-10T08:01:22;99918.75;;;22.87;75.64
18022;BME280;9136;48.822;7.966;2023-06-10T08:04:10;99890.94;;;22.78;76.44
18022;BME280;9136;48.822;7.966;2023-06-10T08:07:00;99898.97;;;22.78;73.65
18022;BME280;9136;48.822;7.966;2023-06-10T08:09:48;99917.38;;;23.02;79.29
18022;BME280;9136;48.822;7.966;2023-06-10T08:12:36;99906.53;;;23.13;77.62
18022;BME280;9136;48.822;7.966;2023-06-10T08:15:24;99901.78;;;23.27;72.00
18022;BME280;9136;48.822;7.966;2023-06-10T08:18:12;99915.34;;;23.54;74.75
18022;BME280;9136;48.822;7.966;2023-06-10T08:21:00;99912.81;;;23.53;76.15
18022;BME280;9136;48.822;7.966;2023-06-10T08:23:52;99904.53;;;23.65;75.69
18022;BME280;9136;48.822;7.966;2023-06-10T08:26:41;99905.06;;;23.88;71.08
18022;BME280;9136;48.822;7.966;2023-06-10T08:29:29;99906.19;;;23.95;76.24
18022;BME280;9136;48.822;7.966;2023-06-10T08:32:17;99909.72;;;24.06;68.62
18022;BME280;9136;48.822;7.966;2023-06-10T08:35:05;99892.03;;;24.13;70.93
18022;BME280;9136;48.822;7.966;2023-06-10T08:37:54;99897.63;;;24.29;64.95
18022;BME280;9136;48.822;7.966;2023-06-10T08:40:43;99899.59;;;24.46;71.88
18022;BME280;9136;48.822;7.966;2023-06-10T08:43:34;99905.81;;;24.47;64.49
18022;BME280;9136;48.822;7.966;2023-06-10T08:46:22;99897.94;;;24.26;67.63
18022;BME280;9136;48.822;7.966;2023-06-10T08:49:10;99895.66;;;24.21;64.64
18022;BME280;9136;48.822;7.966;2023-06-10T08:52:03;99888.84;;;24.46;65.64
18022;BME280;9136;48.822;7.966;2023-06-10T08:54:56;99882.44;;;24.57;62.86
18022;BME280;9136;48.822;7.966;2023-06-10T08:57:46;99893.75;;;24.88;68.18
18022;BME280;9136;48.822;7.966;2023-06-10T09:00:34;99892.66;;;25.08;69.46
18022;BME280;9136;48.822;7.966;2023-06-10T09:03:23;99909.19;;;25.14;62.70
18022;BME280;9136;48.822;7.966;2023-06-10T09:06:11;99887.06;;;25.02;64.76
18022;BME280;9136;48.822;7.966;2023-06-10T09:09:01;99909.44;;;25.38;62.49
18022;BME280;9136;48.822;7.966;2023-06-10T09:11:51;99900.75;;;25.44;62.28
18022;BME280;9136;48.822;7.966;2023-06-10T09:14:41;99906.31;;;25.43;55.99
18022;BME280;9136;48.822;7.966;2023-06-10T09:17:29;99899.25;;;25.42;56.88
18022;BME280;9136;48.822;7.966;2023-06-10T09:20:17;99893.09;;;25.49;56.92
18022;BME280;9136;48.822;7.966;2023-06-10T09:23:05;99903.56;;;25.70;54.96
18022;BME280;9136;48.822;7.966;2023-06-10T09:25:56;99891.53;;;25.64;54.42
18022;BME280;9136;48.822;7.966;2023-06-10T09:28:47;99894.25;;;25.82;56.28
18022;BME280;9136;48.822;7.966;2023-06-10T09:31:38;99897.50;;;26.12;58.51
18022;BME280;9136;48.822;7.966;2023-06-10T09:34:28;99876.34;;;26.17;51.61
18022;BME280;9136;48.822;7.966;2023-06-10T09:37:20;99888.84;;;26.26;55.50
18022;BME280;9136;48.822;7.966;2023-06-10T09:40:08;99877.84;;;26.37;55.67
18022;BME280;9136;48.822;7.966;2023-06-10T09:42:58;99870.44;;;26.39;54.84
18022;BME280;9136;48.822;7.966;2023-06-10T09:45:49;99875.88;;;26.47;53.06
18022;BME280;9136;48.822;7.966;2023-06-10T09:48:45;99882.66;;;26.60;52.35
18022;BME280;9136;48.822;7.966;2023-06-10T09:51:33;99880.72;;;26.44;49.59
18022;BME280;9136;48.822;7.966;2023-06-10T09:54:21;99868.84;;;26.63;53.08
18022;BME280;9136;48.822;7.966;2023-06-10T09:57:09;99876.81;;;26.72;50.21
18022;BME280;9136;48.822;7.966;2023-06-10T09:59:57;99870.44;;;26.81;50.41
18022;BME280;9136;48.822;7.966;2023-06-10T10:02:47;99869.56;;;27.07;53.62
18022;BME280;9136;48.822;7.966;2023-06-10T10:05:39;99848.31;;;27.04;50.75
18022;BME280;9136;48.822;7.966;2023-06-10T10:08:30;99875.84;;;27.32;48.47
18022;BME280;9136;48.822;7.966;2023-06-10T10:11:19;99876.88;;;27.55;47.63
18022;BME280;9136;48.822;7.966;2023-06-10T10:14:08;99851.75;;;27.55;48.15
18022;BME280;9136;48.822;7.966;2023-06-10T10:16:57;99854.44;;;27.79;49.60
18022;BME280;9136;48.822;7.966;2023-06-10T10:19:48;99868.78;;;27.88;47.67
18022;BME280;9136;48.822;7.966;2023-06-10T10:22:39;99851.75;;;27.95;45.59
18022;BME280;9136;48.822;7.966;2023-06-10T10:25:29;99854.59;;;28.18;47.92
18022;BME280;9136;48.822;7.966;2023-06-10T10:28:24;99856.75;;;28.23;43.33
18022;BME280;9136;48.822;7.966;2023-06-10T10:31:16;99857.44;;;28.25;45.72
18022;BME280;9136;48.822;7.966;2023-06-10T10:34:07;99844.94;;;28.32;45.15
18022;BME280;9136;48.822;7.966;2023-06-10T10:36:57;99844.19;;;28.55;47.63
18022;BME280;9136;48.822;7.966;2023-06-10T10:39:47;99854.09;;;28.70;41.40
18022;BME280;9136;48.822;7.966;2023-06-10T10:42:36;99847.28;;;28.83;44.20
18022;BME280;9136;48.822;7.966;2023-06-10T10:45:27;99868.41;;;28.79;41.34
18022;BME280;9136;48.822;7.966;2023-06-10T10:48:15;99846.84;;;28.63;40.51
18022;BME280;9136;48.822;7.966;2023-06-10T10:51:06;99841.19;;;28.80;44.17
18022;BME280;9136;48.822;7.966;2023-06-10T10:54:12;99836.81;;;28.79;41.72
18022;BME280;9136;48.822;7.966;2023-06-10T10:57:12;99831.47;;;29.02;42.50
18022;BME280;9136;48.822;7.966;2023-06-10T11:00:01;99831.13;;;29.28;43.79
18022;BME280;9136;48.822;7.966;2023-06-10T11:02:53;99838.41;;;30.11;39.31
18022;BME280;9136;48.822;7.966;2023-06-10T11:05:46;99846.19;;;31.74;37.92
18022;BME280;9136;48.822;7.966;2023-06-10T11:08:49;99835.81;;;33.36;34.25
18022;BME280;9136;48.822;7.966;2023-06-10T11:11:49;99834.97;;;34.92;31.74
18022;BME280;9136;48.822;7.966;2023-06-10T11:14:54;99838.72;;;34.98;29.90
18022;BME280;9136;48.822;7.966;2023-06-10T11:18:09;99827.41;;;36.07;29.35
18022;BME280;9136;48.822;7.966;2023-06-10T11:20:58;99821.13;;;36.99;29.08
18022;BME280;9136;48.822;7.966;2023-06-10T11:23:46;99839.66;;;37.57;29.54
18022;BME280;9136;48.822;7.966;2023-06-10T11:26:43;99839.09;;;38.01;26.41
18022;BME280;9136;48.822;7.966;2023-06-10T11:29:32;99836.13;;;38.38;26.34
18022;BME280;9136;48.822;7.966;2023-06-10T11:32:23;99838.88;;;37.91;25.26
18022;BME280;9136;48.822;7.966;2023-06-10T11:35:12;99832.00;;;38.24;26.49
18022;BME280;9136;48.822;7.966;2023-06-10T11:38:01;99833.88;;;38.00;26.22
18022;BME280;9136;48.822;7.966;2023-06-10T11:40:50;99837.22;;;38.14;27.14
18022;BME280;9136;48.822;7.966;2023-06-10T11:43:40;99832.63;;;38.54;25.34
18022;BME280;9136;48.822;7.966;2023-06-10T11:46:30;99849.06;;;39.63;24.87
18022;BME280;9136;48.822;7.966;2023-06-10T11:49:20;99827.56;;;39.77;25.15
18022;BME280;9136;48.822;7.966;2023-06-10T11:52:08;99834.06;;;39.71;24.79
18022;BME280;9136;48.822;7.966;2023-06-10T11:54:57;99831.88;;;38.82;25.15
18022;BME280;9136;48.822;7.966;2023-06-10T11:57:44;99843.34;;;39.53;24.59
18022;BME280;9136;48.822;7.966;2023-06-10T12:00:32;99837.03;;;40.20;24.02
18022;BME280;9136;48.822;7.966;2023-06-10T12:03:20;99818.75;;;39.58;24.03
18022;BME280;9136;48.822;7.966;2023-06-10T12:06:09;99821.88;;;39.84;25.53
18022;BME280;9136;48.822;7.966;2023-06-10T12:08:57;99820.63;;;39.74;25.73
18022;BME280;9136;48.822;7.966;2023-06-10T12:11:49;99829.53;;;40.54;22.79
18022;BME280;9136;48.822;7.966;2023-06-10T12:14:56;99832.63;;;40.41;22.78
18022;BME280;9136;48.822;7.966;2023-06-10T12:17:44;99826.44;;;39.95;23.70
18022;BME280;9136;48.822;7.966;2023-06-10T12:20:32;99809.09;;;40.11;25.21
18022;BME280;9136;48.822;7.966;2023-06-10T12:23:22;99806.59;;;38.97;24.67
18022;BME280;9136;48.822;7.966;2023-06-10T12:26:10;99817.31;;;39.72;23.66
18022;BME280;9136;48.822;7.966;2023-06-10T12:28:57;99805.69;;;39.08;23.50
18022;BME280;9136;48.822;7.966;2023-06-10T12:31:56;99797.13;;;39.05;24.32
18022;BME280;9136;48.822;7.966;2023-06-10T12:34:45;99800.72;;;38.77;24.02
18022;BME280;9136;48.822;7.966;2023-06-10T12:37:33;99810.53;;;39.30;24.03
18022;BME280;9136;48.822;7.966;2023-06-10T12:40:27;99808.34;;;39.15;23.27
18022;BME280;9136;48.822;7.966;2023-06-10T12:43:19;99800.91;;;39.15;23.20
18022;BME280;9136;48.822;7.966;2023-06-10T12:46:10;99793.06;;;39.69;22.89
18022;BME280;9136;48.822;7.966;2023-06-10T12:48:58;99811.69;;;40.40;23.77
18022;BME280;9136;48.822;7.966;2023-06-10T12:51:47;99807.19;;;40.99;21.71
18022;BME280;9136;48.822;7.966;2023-06-10T12:54:35;99803.63;;;40.99;21.30
18022;BME280;9136;48.822;7.966;2023-06-10T12:57:24;99803.69;;;40.82;21.84
18022;BME280;9136;48.822;7.966;2023-06-10T13:00:13;99810.28;;;41.03;23.16
18022;BME280;9136;48.822;7.966;2023-06-10T13:03:01;99802.56;;;40.56;21.83
18022;BME280;9136;48.822;7.966;2023-06-10T13:05:49;99810.56;;;40.57;23.15
18022;BME280;9136;48.822;7.966;2023-06-10T13:08:37;99803.06;;;40.97;22.71
18022;BME280;9136;48.822;7.966;2023-06-10T13:11:24;99803.63;;;41.58;22.13
18022;BME280;9136;48.822;7.966;2023-06-10T13:14:13;99803.69;;;42.00;21.43
18022;BME280;9136;48.822;7.966;2023-06-10T13:17:01;99786.44;;;42.25;21.53
18022;BME280;9136;48.822;7.966;2023-06-10T13:19:49;99790.47;;;42.60;21.23
18022;BME280;9136;48.822;7.966;2023-06-10T13:22:37;99788.66;;;43.01;20.40
18022;BME280;9136;48.822;7.966;2023-06-10T13:25:25;99793.81;;;42.09;20.49
18022;BME280;9136;48.822;7.966;2023-06-10T13:28:13;99770.88;;;41.66;21.63
18022;BME280;9136;48.822;7.966;2023-06-10T13:31:02;99781.91;;;41.02;22.63
18022;BME280;9136;48.822;7.966;2023-06-10T13:33:50;99773.72;;;40.85;21.46
18022;BME280;9136;48.822;7.966;2023-06-10T13:36:38;99770.09;;;39.59;22.58
18022;BME280;9136;48.822;7.966;2023-06-10T13:39:26;99770.22;;;39.18;24.37
18022;BME280;9136;48.822;7.966;2023-06-10T13:42:14;99770.94;;;39.98;22.86
18022;BME280;9136;48.822;7.966;2023-06-10T13:45:02;99766.94;;;39.89;23.38
18022;BME280;9136;48.822;7.966;2023-06-10T13:47:52;99759.34;;;40.34;21.74
18022;BME280;9136;48.822;7.966;2023-06-10T13:50:39;99757.13;;;39.76;23.58
18022;BME280;9136;48.822;7.966;2023-06-10T13:53:31;99750.31;;;39.78;22.18
18022;BME280;9136;48.822;7.966;2023-06-10T13:56:19;99755.72;;;40.34;22.97
18022;BME280;9136;48.822;7.966;2023-06-10T13:59:07;99764.38;;;40.21;22.12
18022;BME280;9136;48.822;7.966;2023-06-10T14:01:55;99746.81;;;40.05;22.99
18022;BME280;9136;48.822;7.966;2023-06-10T14:04:44;99747.34;;;40.68;21.37
18022;BME280;9136;48.822;7.966;2023-06-10T14:07:33;99747.97;;;40.75;21.27
18022;BME280;9136;48.822;7.966;2023-06-10T14:10:21;99758.72;;;40.76;21.79
18022;BME280;9136;48.822;7.966;2023-06-10T14:13:09;99762.09;;;41.05;21.54
18022;BME280;9136;48.822;7.966;2023-06-10T14:15:56;99743.50;;;41.23;21.59
18022;BME280;9136;48.822;7.966;2023-06-10T14:18:48;99745.91;;;41.88;21.21
18022;BME280;9136;48.822;7.966;2023-06-10T14:21:38;99744.06;;;42.04;21.31
18022;BME280;9136;48.822;7.966;2023-06-10T14:24:26;99745.69;;;41.95;21.30
18022;BME280;9136;48.822;7.966;2023-06-10T14:27:14;99730.53;;;41.23;20.29
18022;BME280;9136;48.822;7.966;2023-06-10T14:30:03;99727.38;;;40.33;20.98
18022;BME280;9136;48.822;7.966;2023-06-10T14:32:51;99733.25;;;39.98;21.35
18022;BME280;9136;48.822;7.966;2023-06-10T14:35:39;99740.38;;;40.38;21.48
18022;BME280;9136;48.822;7.966;2023-06-10T14:38:30;99718.13;;;40.18;23.00
18022;BME280;9136;48.822;7.966;2023-06-10T14:41:18;99731.84;;;40.61;23.00
18022;BME280;9136;48.822;7.966;2023-06-10T14:44:06;99727.19;;;39.96;21.27
18022;BME280;9136;48.822;7.966;2023-06-10T14:46:54;99716.31;;;39.51;23.30
18022;BME280;9136;48.822;7.966;2023-06-10T14:49:41;99738.25;;;39.29;22.66
18022;BME280;9136;48.822;7.966;2023-06-10T14:52:30;99723.91;;;39.44;22.00
18022;BME280;9136;48.822;7.966;2023-06-10T14:55:19;99719.34;;;39.88;22.96
18022;BME280;9136;48.822;7.966;2023-06-10T14:58:09;99722.84;;;40.22;22.76
18022;BME280;9136;48.822;7.966;2023-06-10T15:00:56;99716.78;;;39.82;22.51
18022;BME280;9136;48.822;7.966;2023-06-10T15:03:44;99710.75;;;38.67;23.61